Wisecarver (157, 524) Station Data

Red Flag Warning: No
Fire Weather Zone: 250
SDGE Region: Mountain Empire
Lat/Lon: 32.732/-116.762

Observations

Time Wind Speed/Gust Temp(F) RH Fuel Moist Fuel Temp(F) Dewpt(F) Tmax(F) Tmin(F) Accum Precip 10-min Precip SL Press(mb)
2/27 11:40pm 255 6 G 15 47° 93% - - 45° 49.3° 44.3° - - -
2/27 11:20pm 267 6 G 17 47° 93% - - 45° 49.3° 44.3° - - -
2/27 11:10pm 241 12 G 26 48° 93% - - 45° 49.3° 44.3° - - -
2/27 11:00pm 234 14 G 24 47° 93% - - 45° 49.3° 44.3° - - -
2/27 10:50pm 228 14 G 29 47° 93% - - 45° 49.3° 44.3° - - -
2/27 10:40pm 236 13 G 25 47° 93% - - 45° 49.3° 44.3° - - -
2/27 10:30pm 237 10 G 21 48° 92% - - 46° 49.3° 44.3° - - -
2/27 10:20pm 233 8 G 17 48° 92% - - 45° 49.3° 44.3° - - -
2/27 10:10pm 233 6 G 13 48° 92% - - 45° 49.3° 44.3° - - -
2/27 10:00pm 227 9 G 15 48° 92% - - 45° 49.3° 44.3° - - -
2/27 9:50pm 216 7 G 14 48° 92% - - 45° 49.3° 44.3° - - -
2/27 9:40pm 209 9 G 17 48° 92% - - 45° 49.3° 44.3° - - -
2/27 9:30pm 214 8 G 15 48° 92% - - 45° 49.3° 44.3° - - -
2/27 9:20pm 214 10 G 17 48° 92% - - 45° 49.3° 44.3° - - -
2/27 9:10pm 221 8 G 14 47° 92% - - 45° 49.3° 44.3° - - -
2/27 9:00pm 226 13 G 19 48° 91% - - 45° 49.3° 44.3° - - -
2/27 8:50pm 223 14 G 21 47° 91% - - 45° 49.3° 44.3° - - -
2/27 8:40pm 223 16 G 26 47° 91% - - 45° 49.3° 44.3° - - -
2/27 8:30pm 216 16 G 28 47° 91% - - 45° 49.3° 44.3° - - -
2/27 8:20pm 222 13 G 21 47° 91% - - 45° 49.3° 44.3° - - -
2/27 8:10pm 209 12 G 23 48° 90% - - 45° 49.3° 44.3° - - -
2/27 8:00pm 192 13 G 23 48° 89% - - 45° 49.3° 44.3° - - -
2/27 7:50pm 193 14 G 27 48° 89% - - 45° 49.3° 44.3° - - -
2/27 7:40pm 174 12 G 26 48° 89% - - 45° 49.3° 44.3° - - -
2/27 7:30pm 177 12 G 28 47° 90% - - 45° 49.3° 44.3° - - -
2/27 7:20pm 167 11 G 21 47° 91% - - 45° 49.3° 44.3° - - -
2/27 7:10pm 164 9 G 18 47° 91% - - 44° 49.3° 44.3° - - -
2/27 7:00pm 158 7 G 14 47° 91% - - 44° 49.3° 44.3° - - -
2/27 6:50pm 164 8 G 14 47° 91% - - 44° 49.3° 44.3° - - -
2/27 6:40pm 153 6 G 13 47° 91% - - 44° 49.3° 44.3° - - -
2/27 6:30pm 137 5 G 11 47° 90% - - 44° 49.3° 44.3° - - -
2/27 6:20pm 140 5 G 14 47° 90% - - 44° 49.3° 44.3° - - -
2/27 6:10pm 162 7 G 14 47° 90% - - 44° 49.3° 44.3° - - -
2/27 6:00pm 174 7 G 14 47° 90% - - 44° 49.3° 44.3° - - -
2/27 5:50pm 177 7 G 15 47° 90% - - 44° 49.3° 44.3° - - -
2/27 5:40pm 202 7 G 14 47° 90% - - 45° 49.3° 44.3° - - -
2/27 5:30pm 195 7 G 13 47° 90% - - 45° 49.3° 44.3° - - -
2/27 5:20pm 190 7 G 13 48° 89% - - 45° 49.3° 44.3° - - -
2/27 5:10pm 195 8 G 14 48° 89% - - 45° 49.3° 44.3° - - -
2/27 5:00pm 198 9 G 15 48° 89% - - 45° 49.3° 44.3° - - -
2/27 4:50pm 207 9 G 18 48° 90% - - 45° 49.3° 44.3° - - -
2/27 4:40pm 208 9 G 15 48° 90% - - 45° 49.3° 44.3° - - -
2/27 4:30pm 201 9 G 18 48° 90% - - 45° 49.3° 44.3° - - -
2/27 4:20pm 200 8 G 16 48° 89% - - 45° 49.3° 44.3° - - -
2/27 4:10pm 196 9 G 21 48° 90% - - 45° 49.3° 44.3° - - -
2/27 4:00pm 191 10 G 20 48° 90% - - 46° 49.3° 44.3° - - -
2/27 3:50pm 201 9 G 14 48° 90% - - 46° 49.3° 44.3° - - -
2/27 3:40pm 214 10 G 17 48° 91% - - 46° 49.3° 44.3° - - -
2/27 3:30pm 214 9 G 18 48° 92% - - 46° 49.3° 44.3° - - -
2/27 3:20pm 219 11 G 19 48° 92% - - 46° 49.3° 44.3° - - -
2/27 3:10pm 223 11 G 19 48° 93% - - 46° 49.3° 44.3° - - -
2/27 3:00pm 224 11 G 20 48° 92% - - 46° 49.3° 44.3° - - -
2/27 2:50pm 221 11 G 19 48° 92% - - 46° 49.3° 44.3° - - -
2/27 2:40pm 224 12 G 18 48° 92% - - 46° 49.3° 44.3° - - -
2/27 2:30pm 224 14 G 21 48° 92% - - 46° 49.3° 44.3° - - -
2/27 2:20pm 227 15 G 23 48° 92% - - 46° 49.3° 44.3° - - -
2/27 2:10pm 224 15 G 23 48° 92% - - 46° 49.3° 44.3° - - -
2/27 2:00pm 219 14 G 24 48° 92% - - 46° 49.3° 44.3° - - -
2/27 1:50pm 225 13 G 23 48° 92% - - 46° 49.3° 44.3° - - -
2/27 1:40pm 222 17 G 28 48° 92% - - 46° 49.3° 44.3° - - -
2/27 1:30pm 220 14 G 27 48° 92% - - 46° 49.3° 44.3° - - -
2/27 1:20pm 223 16 G 28 48° 93% - - 46° 49.3° 44.3° - - -
2/27 1:10pm 226 13 G 21 48° 93% - - 46° 49.3° 44.3° - - -
2/27 1:00pm 224 13 G 22 48° 93% - - 46° 49.3° 44.3° - - -
2/27 12:50pm 227 15 G 24 48° 92% - - 46° 49.3° 44.3° - - -
2/27 12:40pm 222 16 G 25 48° 92% - - 46° 49.3° 44.3° - - -
2/27 12:30pm 225 15 G 26 48° 92% - - 46° 49.3° 44.3° - - -
2/27 12:20pm 219 15 G 29 48° 92% - - 46° 49.3° 44.3° - - -
2/27 12:10pm 220 14 G 24 48° 92% - - 46° 49.3° 44.3° - - -
2/27 12:00pm 225 11 G 20 48° 92% - - 46° 49.3° 44.3° - - -
2/27 11:50am 225 10 G 22 48° 92% - - 46° 49.3° 44.3° - - -
2/27 11:40am 216 9 G 15 48° 92% - - 46° 49.3° 44.3° - - -
2/27 11:30am 206 6 G 14 48° 92% - - 46° 49.3° 44.3° - - -
2/27 11:20am 219 11 G 17 48° 92% - - 46° 49.3° 44.3° - - -
2/27 11:10am 226 12 G 23 48° 92% - - 46° 49.3° 44.3° - - -
2/27 11:00am 218 10 G 23 48° 92% - - 46° 49.3° 44.3° - - -
2/27 10:50am 225 14 G 24 48° 92% - - 46° 49.3° 44.3° - - -
2/27 10:40am 227 12 G 20 49° 92% - - 46° 49.3° 44.3° - - -
2/27 10:30am 222 11 G 19 49° 92% - - 46° 49.3° 44.3° - - -
2/27 10:20am 227 13 G 20 49° 92% - - 46° 49.3° 44.3° - - -
2/27 10:10am 227 10 G 17 49° 92% - - 46° 49.3° 44.3° - - -
2/27 10:00am 226 9 G 16 49° 92% - - 46° 49.3° 44.3° - - -
2/27 9:50am 224 9 G 15 49° 91% - - 47° 49.3° 44.3° - - -
2/27 9:40am 222 8 G 14 49° 91% - - 46° 49.3° 44.3° - - -
2/27 9:30am 219 10 G 16 49° 90% - - 46° 49.3° 44.3° - - -
2/27 9:20am 204 9 G 22 49° 90% - - 46° 49.3° 44.3° - - -
2/27 9:10am 200 9 G 19 49° 90% - - 46° 49.3° 44.3° - - -
2/27 9:00am 192 9 G 16 49° 90% - - 46° 49.3° 44.3° - - -
2/27 8:50am 189 11 G 19 49° 90% - - 46° 49.3° 44.3° - - -
2/27 8:40am 195 10 G 19 49° 91% - - 46° 49.2° 44.3° - - -
2/27 8:30am 202 9 G 22 49° 91% - - 46° 49.2° 44.3° - - -
2/27 8:20am 206 9 G 17 49° 90% - - 46° 49.2° 44.3° - - -
2/27 8:10am 215 9 G 18 49° 91% - - 46° 49.2° 44.3° - - -
2/27 8:00am 212 9 G 18 49° 91% - - 46° 49.2° 44.3° - - -
2/27 7:50am 212 9 G 18 49° 91% - - 46° 49.2° 44.3° - - -
2/27 7:40am 221 10 G 17 49° 92% - - 47° 49.2° 44.3° - - -
2/27 7:30am 207 7 G 16 49° 92% - - 47° 49.2° 44.3° - - -
2/27 7:20am 214 6 G 11 49° 92% - - 47° 49.2° 44.3° - - -
2/27 7:10am 216 7 G 14 49° 92% - - 47° 49.2° 44.3° - - -
2/27 7:00am 223 9 G 16 49° 92% - - 47° 49.2° 44.3° - - -
2/27 6:50am 216 9 G 15 49° 92% - - 47° 49.2° 44.3° - - -
2/27 6:40am 216 9 G 16 49° 92% - - 47° 49.1° 44.3° - - -
2/27 6:30am 212 8 G 14 49° 91% - - 46° 49.1° 44.3° - - -
2/27 6:20am 207 8 G 17 49° 91% - - 46° 49.1° 44.3° - - -
2/27 6:10am 211 9 G 17 49° 91% - - 46° 49.1° 44.3° - - -
2/27 6:00am 218 9 G 16 49° 91% - - 46° 49.1° 44.3° - - -
2/27 5:50am 212 8 G 14 49° 91% - - 46° 49.1° 44.3° - - -
2/27 5:40am 194 11 G 21 49° 91% - - 46° 49.1° 44.3° - - -
2/27 5:30am 202 8 G 16 49° 91% - - 46° 48.9° 44.3° - - -
2/27 5:20am 195 9 G 16 49° 92% - - 46° 48.9° 44.3° - - -
2/27 5:10am 204 9 G 16 49° 92% - - 46° 48.9° 44.3° - - -
2/27 5:00am 204 9 G 19 49° 91% - - 46° 48.9° 44.3° - - -
2/27 4:50am 196 10 G 19 49° 91% - - 46° 48.8° 44.3° - - -
2/27 4:40am 198 9 G 18 49° 91% - - 46° 48.8° 44.3° - - -
2/27 4:30am 188 10 G 23 49° 91% - - 46° 48.8° 44.3° - - -
2/27 4:20am 183 10 G 19 48° 91% - - 46° 48.6° 44.3° - - -
2/27 4:10am 184 9 G 16 48° 91% - - 46° 48.4° 44.3° - - -
2/27 4:00am 192 9 G 17 48° 91% - - 46° 48.3° 44.3° - - -
2/27 3:50am 185 9 G 17 48° 91% - - 45° 48° 44.3° - - -
2/27 3:40am 180 8 G 14 48° 91% - - 45° 48° 44.3° - - -
2/27 3:30am 180 8 G 15 48° 92% - - 45° 48° 44.3° - - -
2/27 3:20am 188 7 G 13 48° 92% - - 45° 47.8° 44.3° - - -
2/27 3:10am 190 6 G 13 47° 92% - - 45° 47.5° 44.3° - - -
2/27 3:00am 178 7 G 14 47° 92% - - 45° 47.2° 44.3° - - -
2/27 2:50am 178 5 G 12 47° 92% - - 45° 47.1° 44.3° - - -
2/27 2:40am 170 6 G 11 47° 92% - - 45° 47.1° 44.3° - - -
2/27 2:30am 172 7 G 13 47° 92% - - 45° 47.1° 44.3° - - -
2/27 2:20am 177 6 G 11 47° 92% - - 45° 46.9° 44.3° - - -
2/27 2:10am 170 6 G 11 46° 92% - - 44° 46.6° 44.3° - - -
2/27 2:00am 183 6 G 12 46° 92% - - 44° 46.5° 44.3° - - -
2/27 1:50am 173 6 G 12 46° 92% - - 44° 46.3° 44.3° - - -
2/27 1:40am 164 6 G 12 46° 92% - - 44° 46.3° 44.3° - - -
2/27 1:30am 170 6 G 10 46° 92% - - 44° 46.3° 44.3° - - -
2/27 1:20am 174 5 G 9 46° 92% - - 44° 46.1° 44.3° - - -
2/27 1:10am 177 5 G 9 46° 92% - - 44° 46.1° 44.3° - - -
2/27 1:00am 190 5 G 8 46° 92% - - 44° 45.8° 44.3° - - -
2/27 12:50am 196 5 G 8 45° 92% - - 43° 45.7° 44.3° - - -
2/27 12:40am 198 4 G 6 45° 92% - - 43° 45.4° 44.3° - - -
2/27 12:30am 195 4 G 7 45° 92% - - 43° 45.2° 44.3° - - -
2/27 12:20am 196 4 G 7 45° 92% - - 43° 45° 44.3° - - -
2/27 12:10am 195 3 G 7 45° 92% - - 43° 45° 44.4° - - -
2/27 12:00am 181 3 G 6 44° 92% - - 42° 48.2° 39.9° - - -
2/26 11:50pm 186 3 G 6 44° 92% - - 42° 48.2° 39.9° - - -
2/26 11:40pm 168 2 G 3 44° 92% - - 42° 48.2° 39.9° - - -
2/26 11:30pm 213 3 G 5 44° 92% - - 42° 48.2° 39.9° - - -
2/26 11:20pm 223 3 G 5 44° 92% - - 42° 48.2° 39.9° - - -
2/26 11:10pm 226 4 G 6 44° 92% - - 42° 48.2° 39.9° - - -
2/26 11:00pm 235 3 G 6 44° 92% - - 41° 48.2° 39.9° - - -
2/26 10:50pm 202 4 G 7 44° 91% - - 41° 48.2° 39.9° - - -
2/26 10:40pm 187 4 G 6 43° 91% - - 41° 48.2° 39.9° - - -
2/26 10:30pm 182 4 G 6 44° 91% - - 41° 48.2° 39.9° - - -
2/26 10:20pm 229 4 G 7 44° 91% - - 41° 48.2° 39.9° - - -
2/26 10:10pm 219 4 G 5 44° 90% - - 41° 48.2° 39.9° - - -
2/26 10:00pm 226 4 G 6 43° 90% - - 41° 48.2° 39.9° - - -
2/26 9:50pm 211 4 G 7 43° 91% - - 41° 48.2° 39.9° - - -
2/26 9:40pm 195 2 G 5 43° 91% - - 41° 48.2° 39.9° - - -
2/26 9:30pm 224 3 G 6 43° 91% - - 40° 48.2° 39.9° - - -
2/26 9:20pm 233 3 G 6 43° 90% - - 40° 48.2° 39.9° - - -
2/26 9:10pm 215 5 G 8 43° 90% - - 40° 48.2° 39.9° - - -
2/26 9:00pm 234 4 G 8 43° 90% - - 41° 48.2° 39.9° - - -
2/26 8:50pm 226 5 G 9 43° 90% - - 41° 48.2° 39.9° - - -
2/26 8:40pm 242 3 G 6 44° 89% - - 41° 48.2° 39.9° - - -
2/26 8:30pm 244 3 G 9 43° 90% - - 40° 48.2° 39.9° - - -
2/26 8:20pm 244 7 G 14 44° 91% - - 41° 48.2° 39.9° - - -
2/26 8:10pm 244 7 G 13 44° 90% - - 41° 48.2° 39.9° - - -
2/26 8:00pm 252 6 G 15 44° 91% - - 41° 48.2° 39.9° - - -
2/26 7:50pm 246 4 G 11 44° 91% - - 41° 48.2° 39.9° - - -
2/26 7:40pm 242 4 G 10 44° 90% - - 41° 48.2° 39.9° - - -
2/26 7:30pm 233 8 G 13 44° 89% - - 41° 48.2° 39.9° - - -
2/26 7:20pm 242 5 G 11 44° 89% - - 41° 48.2° 39.9° - - -
2/26 7:10pm 248 5 G 12 44° 89% - - 41° 48.2° 39.9° - - -
2/26 7:00pm 245 5 G 11 44° 90% - - 41° 48.2° 39.9° - - -
2/26 6:50pm 246 5 G 12 44° 91% - - 41° 48.2° 39.9° - - -
2/26 6:40pm 235 6 G 11 44° 91% - - 42° 48.2° 39.9° - - -
2/26 6:30pm 244 8 G 14 44° 90% - - 42° 48.2° 39.9° - - -
2/26 6:20pm 238 9 G 19 44° 90% - - 42° 48.2° 39.9° - - -
2/26 6:10pm 239 5 G 10 44° 90% - - 42° 48.2° 39.9° - - -
2/26 6:00pm 225 8 G 12 44° 89% - - 41° 48.2° 39.9° - - -
2/26 5:50pm 235 7 G 14 44° 89% - - 41° 48.2° 39.9° - - -
2/26 5:40pm 236 9 G 16 45° 88% - - 41° 48.2° 39.9° - - -
2/26 5:30pm 248 6 G 14 45° 87% - - 41° 48.2° 39.9° - - -
2/26 5:20pm 231 7 G 14 45° 87% - - 41° 48.2° 39.9° - - -
2/26 5:10pm 237 10 G 17 45° 86% - - 41° 48.2° 39.9° - - -
2/26 5:00pm 240 6 G 13 45° 85% - - 41° 48.2° 39.9° - - -